createdAt,value
2019-03-21T00:02:03.435Z,88.97
2019-03-21T00:04:31.982Z,90.13
2019-03-21T00:07:00.462Z,94.70
2019-03-21T00:09:28.933Z,90.40
2019-03-21T00:12:05.562Z,89.03
2019-03-21T00:14:39.834Z,84.33
2019-03-21T00:17:11.581Z,88.90
2019-03-21T00:19:40.083Z,92.93
2019-03-21T00:22:08.616Z,91.30
2019-03-21T00:24:37.081Z,90.23
2019-03-21T00:27:05.677Z,88.90
2019-03-21T00:29:34.186Z,94.73
2019-03-21T00:32:02.725Z,83.93
2019-03-21T00:34:31.167Z,83.07
2019-03-21T00:36:59.664Z,96.77
2019-03-21T00:39:32.604Z,96.67
2019-03-21T00:41:58.362Z,95.63
2019-03-21T00:44:26.896Z,93.67
2019-03-21T00:46:55.447Z,100.03
2019-03-21T00:49:23.873Z,95.97
2019-03-21T00:51:52.354Z,93.60
2019-03-21T00:54:20.938Z,91.97
2019-03-21T00:56:49.402Z,92.43
2019-03-21T00:59:17.962Z,93.27
2019-03-21T01:01:46.501Z,93.07
2019-03-21T01:04:14.961Z,90.53
2019-03-21T01:06:43.492Z,84.47
2019-03-21T01:09:16.085Z,89.03
2019-03-21T01:11:44.586Z,90.03
2019-03-21T01:14:13.047Z,87.57
2019-03-21T01:16:41.507Z,99.03
2019-03-21T01:19:11.012Z,88.73
2019-03-21T01:21:39.496Z,97.57
2019-03-21T01:24:08.040Z,88.17
2019-03-21T01:26:38.212Z,89.20
2019-03-21T01:29:06.678Z,97.20
2019-03-21T01:31:35.248Z,94.90
2019-03-21T01:34:04.383Z,92.17
2019-03-21T01:36:32.904Z,95.40
2019-03-21T01:39:01.407Z,88.57
2019-03-21T01:41:30.093Z,88.20
2019-03-21T01:43:58.542Z,95.23
2019-03-21T01:46:27.238Z,97.90
2019-03-21T01:48:55.802Z,91.23
2019-03-21T01:51:24.606Z,95.77
2019-03-21T01:53:54.991Z,113.53
2019-03-21T01:56:23.481Z,97.07
2019-03-21T01:58:51.970Z,99.13
2019-03-21T02:01:20.570Z,94.00
2019-03-21T02:03:49.090Z,96.10
2019-03-21T02:06:17.716Z,93.30
2019-03-21T02:08:46.176Z,97.30
2019-03-21T02:11:14.671Z,96.83
2019-03-21T02:13:43.258Z,99.93
2019-03-21T02:16:11.768Z,93.67
2019-03-21T02:18:40.287Z,101.77
2019-03-21T02:21:08.759Z,104.00
2019-03-21T02:23:37.283Z,93.90
2019-03-21T02:26:05.732Z,99.50
2019-03-21T02:28:34.223Z,102.27
2019-03-21T02:31:02.712Z,105.67
2019-03-21T02:33:39.703Z,108.47
2019-03-21T02:36:11.480Z,107.80
2019-03-21T02:38:40.107Z,98.40
2019-03-21T02:41:11.661Z,103.43
2019-03-21T02:43:41.684Z,110.37
2019-03-21T02:46:10.348Z,109.20
2019-03-21T02:48:38.986Z,102.87
2019-03-21T02:51:08.313Z,109.13
2019-03-21T02:53:36.883Z,105.30
2019-03-21T02:56:08.693Z,105.50
2019-03-21T02:58:37.165Z,114.70
2019-03-21T03:01:05.805Z,103.23
2019-03-21T03:03:34.304Z,115.90
2019-03-21T03:06:02.804Z,107.93
2019-03-21T03:08:31.348Z,112.03
2019-03-21T03:11:05.718Z,117.03
2019-03-21T03:13:34.385Z,109.90
2019-03-21T03:16:02.855Z,105.03
2019-03-21T03:18:34.146Z,102.27
2019-03-21T03:21:02.659Z,102.60
2019-03-21T03:23:31.179Z,105.27
2019-03-21T03:25:59.650Z,107.03
2019-03-21T03:28:34.181Z,102.70
2019-03-21T03:31:02.625Z,114.73
2019-03-21T03:33:32.656Z,105.67
2019-03-21T03:36:01.467Z,110.47
2019-03-21T03:38:30.078Z,107.87
2019-03-21T03:41:04.638Z,94.10
2019-03-21T03:43:33.223Z,101.77
2019-03-21T03:46:01.783Z,98.63
2019-03-21T03:48:30.388Z,99.67
2019-03-21T03:50:58.913Z,100.63
2019-03-21T03:53:27.461Z,110.90
2019-03-21T03:55:55.971Z,108.87
2019-03-21T03:58:26.617Z,97.50
2019-03-21T04:00:55.072Z,103.00
2019-03-21T04:03:24.355Z,108.00
2019-03-21T04:05:52.816Z,97.73
2019-03-21T04:08:21.268Z,107.50
2019-03-21T04:10:51.093Z,96.03
2019-03-21T04:13:19.550Z,88.97
2019-03-21T04:15:53.371Z,92.83
2019-03-21T04:18:20.908Z,93.43
2019-03-21T04:21:04.743Z,101.63
2019-03-21T04:23:33.203Z,97.27
2019-03-21T04:26:05.193Z,88.10
2019-03-21T04:28:33.730Z,90.17
2019-03-21T04:31:02.201Z,91.17
2019-03-21T04:33:30.783Z,87.77
2019-03-21T04:35:59.319Z,80.17
2019-03-21T04:38:27.764Z,86.53
2019-03-21T04:40:56.309Z,92.13
2019-03-21T04:43:24.764Z,81.17
2019-03-21T04:46:02.859Z,84.47
2019-03-21T04:48:23.406Z,89.87
2019-03-21T04:50:51.893Z,85.57
2019-03-21T04:53:20.351Z,85.23
2019-03-21T04:55:48.861Z,84.57
2019-03-21T04:58:17.352Z,84.57
2019-03-21T05:00:58.591Z,74.33
2019-03-21T05:03:29.083Z,74.00
2019-03-21T05:05:57.537Z,75.00
2019-03-21T05:08:25.987Z,77.80
2019-03-21T05:10:54.470Z,73.73
2019-03-21T05:13:22.955Z,77.80
2019-03-21T05:15:52.934Z,70.17
2019-03-21T05:18:33.253Z,70.53
2019-03-21T05:21:03.076Z,63.43
2019-03-21T05:23:31.598Z,60.10
2019-03-21T05:26:00.052Z,66.17
2019-03-21T05:28:28.522Z,65.40
2019-03-21T05:31:00.215Z,67.57
2019-03-21T05:33:28.666Z,62.40
2019-03-21T05:35:57.312Z,58.70
2019-03-21T05:38:28.236Z,60.73
2019-03-21T05:40:56.758Z,65.10
2019-03-21T05:43:31.438Z,63.93
2019-03-21T05:45:59.906Z,59.53
2019-03-21T05:48:28.372Z,63.03
2019-03-21T05:50:56.819Z,61.97
2019-03-21T05:56:53.846Z,64.43
2019-03-21T06:00:32.338Z,70.27
2019-03-21T06:03:00.808Z,61.87
2019-03-21T06:05:30.123Z,65.90
2019-03-21T06:08:13.174Z,63.80
2019-03-21T06:10:41.712Z,59.50
2019-03-21T06:13:10.233Z,58.40
2019-03-21T06:15:40.895Z,59.27
2019-03-21T06:18:33.669Z,57.77
2019-03-21T06:21:14.236Z,54.63
2019-03-21T06:24:06.994Z,54.97
2019-03-21T06:26:52.950Z,55.37
2019-03-21T06:29:21.424Z,52.30
2019-03-21T06:31:49.867Z,52.83
2019-03-21T06:34:18.329Z,54.93
2019-03-21T06:36:46.896Z,51.77
2019-03-21T06:39:15.358Z,57.50
2019-03-21T06:41:43.857Z,53.00
2019-03-21T06:44:12.356Z,51.60
2019-03-21T06:46:48.782Z,56.83
2019-03-21T06:49:11.005Z,61.30
2019-03-21T06:51:39.465Z,59.27
2019-03-21T06:54:07.913Z,59.53
2019-03-21T06:56:36.343Z,58.53
2019-03-21T06:59:04.883Z,58.63
2019-03-21T07:01:33.337Z,66.37
2019-03-21T07:04:06.910Z,62.90
2019-03-21T07:06:32.017Z,62.70
2019-03-21T07:09:00.533Z,65.80
2019-03-21T07:11:28.992Z,72.97
2019-03-21T07:13:57.502Z,70.83
2019-03-21T07:16:26.045Z,71.50
2019-03-21T07:18:54.522Z,77.60
2019-03-21T07:21:22.988Z,82.23
2019-03-21T07:23:51.498Z,74.47
2019-03-21T07:26:19.942Z,67.00
2019-03-21T07:28:48.410Z,74.63
2019-03-21T07:31:16.864Z,73.57
2019-03-21T07:33:45.322Z,85.53
2019-03-21T07:36:13.787Z,79.03
2019-03-21T07:38:42.244Z,71.20
2019-03-21T07:41:10.696Z,75.17
2019-03-21T07:43:39.215Z,73.33
2019-03-21T07:46:07.656Z,72.57
2019-03-21T07:48:36.116Z,84.50
2019-03-21T07:51:04.583Z,71.20
2019-03-21T07:53:33.065Z,76.80
2019-03-21T07:56:01.587Z,71.33
2019-03-21T07:58:30.126Z,72.03
2019-03-21T08:00:58.902Z,74.90
2019-03-21T08:03:27.434Z,63.07
2019-03-21T08:05:56.038Z,65.17
2019-03-21T08:08:24.533Z,58.33
2019-03-21T08:10:52.989Z,61.63
2019-03-21T08:13:21.468Z,58.63
2019-03-21T08:15:49.925Z,58.70
2019-03-21T08:18:18.361Z,59.73
2019-03-21T08:20:56.024Z,58.03
2019-03-21T08:23:17.026Z,66.10
2019-03-21T08:25:45.542Z,63.53
2019-03-21T08:28:13.991Z,59.63
2019-03-21T08:31:06.888Z,56.80
2019-03-21T08:33:35.406Z,57.30
2019-03-21T08:36:03.942Z,60.73
2019-03-21T08:38:32.422Z,60.77
2019-03-21T08:41:00.901Z,53.40
2019-03-21T08:43:29.415Z,58.20
2019-03-21T08:45:57.897Z,56.43
2019-03-21T08:48:26.352Z,59.13
2019-03-21T08:50:54.843Z,53.80
2019-03-21T08:53:23.292Z,54.10
2019-03-21T08:55:51.736Z,60.60
2019-03-21T08:58:20.173Z,53.10
2019-03-21T09:00:48.669Z,55.53
2019-03-21T09:03:17.119Z,63.77
2019-03-21T09:05:45.563Z,60.43
2019-03-21T09:08:14.009Z,57.17
2019-03-21T09:10:42.463Z,62.03
2019-03-21T09:13:10.902Z,58.23
2019-03-21T09:15:39.374Z,61.87
2019-03-21T09:18:07.864Z,65.57
2019-03-21T09:20:36.334Z,68.30
2019-03-21T09:23:04.921Z,66.90
2019-03-21T09:25:33.454Z,71.13
2019-03-21T09:28:02.852Z,73.97
2019-03-21T09:30:31.748Z,65.07
2019-03-21T09:33:00.210Z,74.37
2019-03-21T09:35:28.669Z,66.93
2019-03-21T09:37:57.162Z,66.97
2019-03-21T09:40:25.612Z,66.53
2019-03-21T09:42:54.166Z,56.40
2019-03-21T09:45:22.632Z,58.40
2019-03-21T09:47:51.203Z,58.80
2019-03-21T09:50:30.249Z,60.80
2019-03-21T09:52:58.717Z,58.50
2019-03-21T09:55:27.238Z,63.03
2019-03-21T09:57:55.739Z,59.30
2019-03-21T10:00:37.936Z,60.43
2019-03-21T10:03:06.602Z,55.63
2019-03-21T10:05:36.471Z,58.03
2019-03-21T10:08:05.717Z,55.50
2019-03-21T10:10:36.907Z,47.83
2019-03-21T10:13:05.825Z,45.53
2019-03-21T10:15:34.447Z,48.90
2019-03-21T10:18:03.034Z,47.03
2019-03-21T10:20:31.553Z,46.07
2019-03-21T10:23:00.221Z,49.33
2019-03-21T10:25:28.670Z,40.57
2019-03-21T10:27:57.140Z,43.00
2019-03-21T10:30:36.243Z,46.03
2019-03-21T10:33:06.954Z,41.03
2019-03-21T10:35:35.485Z,42.33
2019-03-21T10:38:04.734Z,45.80
2019-03-21T10:40:33.279Z,41.53
2019-03-21T10:43:01.833Z,43.83
2019-03-21T10:45:30.347Z,45.97
2019-03-21T10:47:58.813Z,44.83
2019-03-21T10:50:29.614Z,45.60
2019-03-21T10:52:59.103Z,46.50
2019-03-21T10:55:27.781Z,50.13
2019-03-21T10:57:56.418Z,45.20
2019-03-21T11:00:24.963Z,48.53
2019-03-21T11:02:53.538Z,44.50
2019-03-21T11:05:23.249Z,47.23
2019-03-21T11:07:52.018Z,43.07
2019-03-21T11:10:20.594Z,45.03
2019-03-21T11:12:49.110Z,47.33
2019-03-21T11:15:17.584Z,44.57
2019-03-21T11:17:46.204Z,41.63
2019-03-21T11:20:29.059Z,40.83
2019-03-21T11:22:57.774Z,35.17
2019-03-21T11:25:26.358Z,30.33
2019-03-21T11:27:54.840Z,31.03
2019-03-21T11:30:36.793Z,31.20
2019-03-21T11:33:05.697Z,33.90
2019-03-21T11:35:34.420Z,32.20
2019-03-21T11:38:03.194Z,33.87
2019-03-21T11:40:31.731Z,34.63
2019-03-21T11:43:00.696Z,32.70
2019-03-21T11:45:29.231Z,32.23
2019-03-21T11:47:59.805Z,36.17
2019-03-21T11:50:27.979Z,34.80
2019-03-21T11:52:56.595Z,32.27
2019-03-21T11:55:25.074Z,34.03
2019-03-21T11:57:53.552Z,36.43
2019-03-21T12:00:22.004Z,32.63
2019-03-21T12:02:50.480Z,34.33
2019-03-21T12:05:19.011Z,38.10
2019-03-21T12:07:47.470Z,38.30
2019-03-21T12:10:16.870Z,35.77
2019-03-21T12:12:45.561Z,40.07
2019-03-21T12:15:14.345Z,37.60
2019-03-21T12:17:42.791Z,40.30
2019-03-21T12:20:14.076Z,38.63
2019-03-21T12:22:42.576Z,40.90
2019-03-21T12:25:11.190Z,40.87
2019-03-21T12:27:39.639Z,40.37
2019-03-21T12:30:14.043Z,40.97
2019-03-21T12:32:44.994Z,39.90
2019-03-21T12:35:13.629Z,36.70
2019-03-21T12:37:42.089Z,41.67
2019-03-21T12:40:10.896Z,38.97
2019-03-21T12:42:39.361Z,36.23
2019-03-21T12:45:09.780Z,37.53
2019-03-21T12:47:38.238Z,35.80
2019-03-21T12:50:09.854Z,40.47
2019-03-21T12:53:37.192Z,41.93
2019-03-21T12:55:08.756Z,38.67
2019-03-21T12:57:37.271Z,34.63
2019-03-21T13:00:10.786Z,37.70
2019-03-21T13:02:39.234Z,38.13
2019-03-21T13:05:08.740Z,42.87
2019-03-21T13:07:37.199Z,37.67
2019-03-21T13:10:07.002Z,36.87
2019-03-21T13:12:35.621Z,43.80
2019-03-21T13:15:08.341Z,41.63
2019-03-21T13:17:36.825Z,37.00
2019-03-21T13:20:07.296Z,40.13
2019-03-21T13:22:35.745Z,42.63
2019-03-21T13:25:06.101Z,37.33
2019-03-21T13:27:34.637Z,35.43
2019-03-21T13:30:07.966Z,35.50
2019-03-21T13:32:36.530Z,33.87
2019-03-21T13:35:06.678Z,39.07
2019-03-21T13:37:35.188Z,34.77
2019-03-21T13:40:05.226Z,36.90
2019-03-21T13:42:33.787Z,41.87
2019-03-21T13:45:02.314Z,38.57
2019-03-21T13:47:30.777Z,36.33
2019-03-21T13:49:59.294Z,36.03
2019-03-21T13:52:27.821Z,39.70
2019-03-21T13:54:56.428Z,37.33
2019-03-21T13:57:24.938Z,43.43
2019-03-21T13:59:53.444Z,42.57
2019-03-21T14:02:21.965Z,42.60
2019-03-21T14:04:50.558Z,41.50
2019-03-21T14:07:19.235Z,43.43
2019-03-21T14:09:47.745Z,41.97
2019-03-21T14:12:16.356Z,34.73
2019-03-21T14:14:44.892Z,39.70
2019-03-21T14:17:21.543Z,40.37
2019-03-21T14:19:43.613Z,37.43
2019-03-21T14:22:12.330Z,42.50
2019-03-21T14:24:40.829Z,40.13
2019-03-21T14:27:09.369Z,39.07
2019-03-21T14:29:37.894Z,36.93
2019-03-21T14:32:06.462Z,43.60
2019-03-21T14:34:35.023Z,42.13
2019-03-21T14:37:03.601Z,41.67
2019-03-21T14:39:32.061Z,43.87
2019-03-21T14:42:00.584Z,44.37
2019-03-21T14:44:29.051Z,48.13
2019-03-21T14:46:57.533Z,40.90
2019-03-21T14:49:26.091Z,42.97
2019-03-21T14:51:54.557Z,43.60
2019-03-21T14:54:23.006Z,37.57
2019-03-21T14:56:51.561Z,42.60
2019-03-21T14:59:20.035Z,38.37
2019-03-21T15:01:48.514Z,39.47
2019-03-21T15:04:17.034Z,42.57
2019-03-21T15:06:45.527Z,43.50
2019-03-21T15:09:14.074Z,37.87
2019-03-21T15:11:42.622Z,36.83
2019-03-21T15:14:11.159Z,35.57
2019-03-21T15:16:39.889Z,34.10
2019-03-21T15:19:08.398Z,37.50
2019-03-21T15:21:37.004Z,41.33
2019-03-21T15:24:05.671Z,37.40
2019-03-21T15:26:34.146Z,36.80
2019-03-21T15:29:02.604Z,37.27
2019-03-21T15:31:31.079Z,35.80
2019-03-21T15:33:59.509Z,34.50
2019-03-21T15:36:27.974Z,36.67
2019-03-21T15:38:56.427Z,37.23
2019-03-21T15:41:25.139Z,35.70
2019-03-21T15:43:53.818Z,34.17
2019-03-21T15:46:22.297Z,35.70
2019-03-21T15:48:50.805Z,36.57
2019-03-21T15:51:19.409Z,36.13
2019-03-21T15:53:54.836Z,36.20
2019-03-21T15:56:18.113Z,40.20
2019-03-21T15:58:46.570Z,33.97
2019-03-21T16:01:15.040Z,38.90
2019-03-21T16:03:43.565Z,35.63
2019-03-21T16:06:12.018Z,36.43
2019-03-21T16:08:40.535Z,36.93
2019-03-21T16:11:09.067Z,33.97
2019-03-21T16:13:39.089Z,39.43
2019-03-21T16:16:07.634Z,33.87
2019-03-21T16:18:36.114Z,33.90
2019-03-21T16:21:06.073Z,31.83
2019-03-21T16:23:34.726Z,35.17
2019-03-21T16:26:08.676Z,35.97
2019-03-21T16:28:37.154Z,33.27
2019-03-21T16:31:05.735Z,30.17
2019-03-21T16:33:34.193Z,30.87
2019-03-21T16:36:02.725Z,29.80
2019-03-21T16:38:31.461Z,32.80
2019-03-21T16:40:59.934Z,34.60
2019-03-21T16:43:28.469Z,32.97
2019-03-21T16:45:56.983Z,31.40
2019-03-21T16:48:25.549Z,36.17
2019-03-21T16:50:54.014Z,32.93
2019-03-21T16:53:22.484Z,35.17
2019-03-21T16:55:51.086Z,37.67
2019-03-21T16:58:19.587Z,34.97
2019-03-21T17:00:48.083Z,39.10
2019-03-21T17:03:16.670Z,36.10
2019-03-21T17:05:45.246Z,38.57
2019-03-21T17:08:13.803Z,39.97
2019-03-21T17:10:42.326Z,42.43
2019-03-21T17:13:11.116Z,44.97
2019-03-21T17:15:39.679Z,44.20
2019-03-21T17:18:08.170Z,42.17
2019-03-21T17:20:36.736Z,39.50
2019-03-21T17:23:05.365Z,42.70
2019-03-21T17:25:33.952Z,39.77
2019-03-21T17:28:02.431Z,40.97
2019-03-21T17:30:30.877Z,38.90
2019-03-21T17:32:59.359Z,37.83
2019-03-21T17:35:27.856Z,42.00
2019-03-21T17:37:56.307Z,38.17
2019-03-21T17:40:24.765Z,38.03
2019-03-21T17:42:53.285Z,40.03
2019-03-21T17:45:21.823Z,37.30
2019-03-21T17:47:50.269Z,37.87
2019-03-21T17:50:18.974Z,35.67
2019-03-21T17:52:47.624Z,37.00
2019-03-21T17:55:16.362Z,41.00
2019-03-21T17:57:44.805Z,37.30
2019-03-21T18:00:20.223Z,36.93
2019-03-21T18:02:48.666Z,37.53
2019-03-21T18:05:17.118Z,37.63
2019-03-21T18:07:45.561Z,33.67
2019-03-21T18:10:26.357Z,41.77
2019-03-21T18:12:55.866Z,47.00
2019-03-21T18:15:24.560Z,35.97
2019-03-21T18:17:53.062Z,45.23
2019-03-21T18:20:21.519Z,39.10
2019-03-21T18:22:49.981Z,40.33
2019-03-21T18:25:18.465Z,35.80
2019-03-21T18:27:51.994Z,39.83
2019-03-21T18:30:20.540Z,42.47
2019-03-21T18:32:49.127Z,41.93
2019-03-21T18:35:17.566Z,47.50
2019-03-21T18:37:46.047Z,39.77
2019-03-21T18:40:14.737Z,45.97
2019-03-21T18:42:43.293Z,43.37
2019-03-21T18:45:14.128Z,41.00
2019-03-21T18:47:42.770Z,41.63
2019-03-21T18:50:13.993Z,40.40
2019-03-21T18:52:42.507Z,43.83
2019-03-21T18:55:11.295Z,42.77
2019-03-21T18:57:39.754Z,46.10
2019-03-21T19:00:13.172Z,45.07
2019-03-21T19:02:41.651Z,46.40
2019-03-21T19:05:10.123Z,43.70
2019-03-21T19:07:38.620Z,45.77
2019-03-21T19:10:12.651Z,47.13
2019-03-21T19:12:41.164Z,45.73
2019-03-21T19:15:12.421Z,52.80
2019-03-21T19:17:40.919Z,44.53
2019-03-21T19:20:18.239Z,47.90
2019-03-21T19:22:47.439Z,44.53
2019-03-21T19:25:19.058Z,47.60
2019-03-21T19:27:47.429Z,47.30
2019-03-21T19:30:18.975Z,44.30
2019-03-21T19:32:47.565Z,45.23
2019-03-21T19:35:16.112Z,61.93
2019-03-21T19:37:44.650Z,44.63
2019-03-21T19:40:15.547Z,48.83
2019-03-21T19:42:44.021Z,52.30
2019-03-21T19:45:14.107Z,46.40
2019-03-21T19:47:42.584Z,51.40
2019-03-21T19:50:13.926Z,51.70
2019-03-21T19:52:42.397Z,49.20
2019-03-21T19:55:11.229Z,52.40
2019-03-21T19:57:39.794Z,53.60
2019-03-21T20:00:14.405Z,54.50
2019-03-21T20:02:42.903Z,51.37
2019-03-21T20:05:11.482Z,59.13
2019-03-21T20:07:39.937Z,55.07
2019-03-21T20:10:10.739Z,54.53
2019-03-21T20:12:39.269Z,58.60
2019-03-21T20:15:10.673Z,56.67
2019-03-21T20:17:39.225Z,60.23
2019-03-21T20:20:10.947Z,58.10
2019-03-21T20:22:39.423Z,56.70
2019-03-21T20:25:08.407Z,58.77
2019-03-21T20:27:37.053Z,58.70
2019-03-21T20:30:08.412Z,57.00
2019-03-21T20:32:39.831Z,55.00
2019-03-21T20:35:08.886Z,58.47
2019-03-21T20:37:37.342Z,60.87
2019-03-21T20:40:07.645Z,57.67
2019-03-21T20:42:36.106Z,58.33
2019-03-21T20:45:06.307Z,59.40
2019-03-21T20:47:35.241Z,60.63
2019-03-21T20:50:04.842Z,61.47
2019-03-21T20:52:33.574Z,65.00
2019-03-21T20:55:02.155Z,59.47
2019-03-21T20:57:30.671Z,59.57
2019-03-21T20:59:59.147Z,64.87
2019-03-21T21:02:27.690Z,61.83
2019-03-21T21:04:56.239Z,63.23
2019-03-21T21:07:24.765Z,65.27
2019-03-21T21:09:53.299Z,67.57
2019-03-21T21:12:21.947Z,60.67
2019-03-21T21:14:50.427Z,64.53
2019-03-21T21:17:18.874Z,73.67
2019-03-21T21:19:47.330Z,68.27
2019-03-21T21:22:15.793Z,65.80
2019-03-21T21:24:44.254Z,70.63
2019-03-21T21:27:12.724Z,74.30
2019-03-21T21:29:43.066Z,69.47
2019-03-21T21:32:11.591Z,68.73
2019-03-21T21:34:40.246Z,66.93
2019-03-21T21:37:08.776Z,72.80
2019-03-21T21:39:37.242Z,73.97
2019-03-21T21:42:05.766Z,76.50
2019-03-21T21:44:34.243Z,73.93
2019-03-21T21:47:02.740Z,74.80
2019-03-21T21:49:31.202Z,79.33
2019-03-21T21:51:59.713Z,77.70
2019-03-21T21:54:28.193Z,85.60
2019-03-21T21:56:56.737Z,80.67
2019-03-21T21:59:25.460Z,75.00
2019-03-21T22:01:54.010Z,75.47
2019-03-21T22:04:22.630Z,83.60
2019-03-21T22:06:51.094Z,72.60
2019-03-21T22:09:19.565Z,84.97
2019-03-21T22:11:48.024Z,83.80
2019-03-21T22:14:16.483Z,82.83
2019-03-21T22:16:45.000Z,81.07
2019-03-21T22:19:13.445Z,83.20
2019-03-21T22:21:41.903Z,87.07
2019-03-21T22:24:10.424Z,76.03
2019-03-21T22:26:38.913Z,80.70
2019-03-21T22:29:07.350Z,76.47
2019-03-21T22:31:35.819Z,79.70
2019-03-21T22:34:04.347Z,78.00
2019-03-21T22:36:32.812Z,85.40
2019-03-21T22:39:01.275Z,80.80
2019-03-21T22:41:29.725Z,83.73
2019-03-21T22:43:58.194Z,79.33
2019-03-21T22:46:26.720Z,76.13
2019-03-21T22:48:55.181Z,83.17
2019-03-21T22:51:23.633Z,81.73
2019-03-21T22:53:52.105Z,80.60
2019-03-21T22:56:20.564Z,79.77
2019-03-21T22:58:49.022Z,81.17
2019-03-21T23:01:17.556Z,84.23
2019-03-21T23:03:46.007Z,82.13
2019-03-21T23:06:14.501Z,84.20
2019-03-21T23:08:42.947Z,82.33
2019-03-21T23:11:11.433Z,78.67
2019-03-21T23:13:39.941Z,74.87
2019-03-21T23:16:08.390Z,74.20
2019-03-21T23:18:36.873Z,69.57
2019-03-21T23:21:05.335Z,76.17
2019-03-21T23:23:33.872Z,71.83
2019-03-21T23:26:02.313Z,79.33
2019-03-21T23:28:30.779Z,76.20
2019-03-21T23:30:59.216Z,80.90
2019-03-21T23:33:27.682Z,78.77
2019-03-21T23:35:56.140Z,77.60
2019-03-21T23:38:24.602Z,80.07
2019-03-21T23:40:53.153Z,72.27
2019-03-21T23:43:21.762Z,76.80
2019-03-21T23:45:50.283Z,70.07
2019-03-21T23:48:18.776Z,72.93
2019-03-21T23:50:47.242Z,81.63
2019-03-21T23:53:15.714Z,71.10
2019-03-21T23:55:44.186Z,69.40
2019-03-21T23:58:12.640Z,68.73
